sensor_id;sensor_type;location;lat;lon;timestamp;pressure;altitude;pressure_sealevel;temperature;humidity
49072;BME280;52656;52.610;10.236;2023-07-28T00:00:22;99785.22;;;18.43;96.11
49072;BME280;52656;52.610;10.236;2023-07-28T00:02:48;99784.31;;;18.33;96.02
49072;BME280;52656;52.610;10.236;2023-07-28T00:05:13;99783.75;;;18.30;96.89
49072;BME280;52656;52.610;10.236;2023-07-28T00:07:38;99786.88;;;18.35;96.46
49072;BME280;52656;52.610;10.236;2023-07-28T00:10:03;99784.38;;;18.43;95.74
49072;BME280;52656;52.610;10.236;2023-07-28T00:12:29;99788.63;;;18.45;95.64
49072;BME280;52656;52.610;10.236;2023-07-28T00:14:54;99785.09;;;18.45;95.17
49072;BME280;52656;52.610;10.236;2023-07-28T00:17:19;99791.09;;;18.27;96.70
49072;BME280;52656;52.610;10.236;2023-07-28T00:19:44;99791.44;;;18.44;95.49
49072;BME280;52656;52.610;10.236;2023-07-28T00:22:09;99779.97;;;18.11;97.35
49072;BME280;52656;52.610;10.236;2023-07-28T00:24:35;99784.47;;;18.32;96.36
49072;BME280;52656;52.610;10.236;2023-07-28T00:27:00;99780.50;;;18.26;97.08
49072;BME280;52656;52.610;10.236;2023-07-28T00:29:25;99778.38;;;18.30;96.79
49072;BME280;52656;52.610;10.236;2023-07-28T00:31:50;99784.19;;;18.35;96.01
49072;BME280;52656;52.610;10.236;2023-07-28T00:34:15;99787.22;;;18.20;97.21
49072;BME280;52656;52.610;10.236;2023-07-28T00:36:41;99781.97;;;18.40;96.22
49072;BME280;52656;52.610;10.236;2023-07-28T00:39:06;99779.97;;;18.32;95.68
49072;BME280;52656;52.610;10.236;2023-07-28T00:41:31;99780.53;;;18.36;96.44
49072;BME280;52656;52.610;10.236;2023-07-28T00:43:56;99786.53;;;18.18;96.55
49072;BME280;52656;52.610;10.236;2023-07-28T00:46:21;99784.66;;;18.40;94.97
49072;BME280;52656;52.610;10.236;2023-07-28T00:48:47;99784.72;;;18.49;94.52
49072;BME280;52656;52.610;10.236;2023-07-28T00:51:12;99782.81;;;18.40;94.97
49072;BME280;52656;52.610;10.236;2023-07-28T00:53:38;99776.13;;;18.35;95.39
49072;BME280;52656;52.610;10.236;2023-07-28T00:56:04;99778.34;;;18.20;96.39
49072;BME280;52656;52.610;10.236;2023-07-28T00:58:29;99784.84;;;18.17;96.46
49072;BME280;52656;52.610;10.236;2023-07-28T01:00:55;99773.34;;;18.36;94.82
49072;BME280;52656;52.610;10.236;2023-07-28T01:03:20;99773.53;;;17.93;96.63
49072;BME280;52656;52.610;10.236;2023-07-28T01:06:02;99778.63;;;18.17;96.10
49072;BME280;52656;52.610;10.236;2023-07-28T01:11:09;99772.91;;;18.31;95.05
49072;BME280;52656;52.610;10.236;2023-07-28T01:13:34;99776.53;;;18.30;95.44
49072;BME280;52656;52.610;10.236;2023-07-28T01:15:59;99772.53;;;18.15;96.03
49072;BME280;52656;52.610;10.236;2023-07-28T01:18:26;99775.16;;;18.26;95.70
49072;BME280;52656;52.610;10.236;2023-07-28T01:20:51;99766.88;;;18.08;96.68
49072;BME280;52656;52.610;10.236;2023-07-28T01:23:24;99771.59;;;18.25;95.89
49072;BME280;52656;52.610;10.236;2023-07-28T01:25:55;99761.19;;;18.01;96.88
49072;BME280;52656;52.610;10.236;2023-07-28T01:28:23;99755.81;;;18.01;97.64
49072;BME280;52656;52.610;10.236;2023-07-28T01:30:48;99768.31;;;18.12;96.64
49072;BME280;52656;52.610;10.236;2023-07-28T01:33:14;99767.84;;;18.38;94.69
49072;BME280;52656;52.610;10.236;2023-07-28T01:35:39;99773.13;;;18.18;95.78
49072;BME280;52656;52.610;10.236;2023-07-28T01:38:04;99775.59;;;18.31;94.77
49072;BME280;52656;52.610;10.236;2023-07-28T01:40:29;99773.78;;;18.41;94.00
49072;BME280;52656;52.610;10.236;2023-07-28T01:42:55;99778.38;;;18.50;93.32
49072;BME280;52656;52.610;10.236;2023-07-28T01:45:20;99772.75;;;18.33;94.22
49072;BME280;52656;52.610;10.236;2023-07-28T01:47:45;99769.44;;;18.19;95.37
49072;BME280;52656;52.610;10.236;2023-07-28T01:50:10;99762.78;;;18.14;95.86
49072;BME280;52656;52.610;10.236;2023-07-28T01:52:36;99767.50;;;18.21;95.36
49072;BME280;52656;52.610;10.236;2023-07-28T01:55:01;99766.56;;;18.32;94.70
49072;BME280;52656;52.610;10.236;2023-07-28T01:57:26;99766.81;;;18.29;94.82
49072;BME280;52656;52.610;10.236;2023-07-28T01:59:52;99771.91;;;18.32;94.74
49072;BME280;52656;52.610;10.236;2023-07-28T02:02:18;99769.78;;;18.26;95.13
49072;BME280;52656;52.610;10.236;2023-07-28T02:04:43;99783.19;;;18.26;94.39
49072;BME280;52656;52.610;10.236;2023-07-28T02:07:08;99783.19;;;18.05;96.10
49072;BME280;52656;52.610;10.236;2023-07-28T02:09:33;99790.28;;;18.37;94.30
49072;BME280;52656;52.610;10.236;2023-07-28T02:11:58;99784.50;;;18.41;94.05
49072;BME280;52656;52.610;10.236;2023-07-28T02:14:24;99778.88;;;18.44;93.42
49072;BME280;52656;52.610;10.236;2023-07-28T02:16:49;99783.41;;;18.44;93.91
49072;BME280;52656;52.610;10.236;2023-07-28T02:19:14;99787.53;;;18.48;93.34
49072;BME280;52656;52.610;10.236;2023-07-28T02:21:39;99779.09;;;18.32;93.89
49072;BME280;52656;52.610;10.236;2023-07-28T02:24:05;99773.19;;;18.38;94.20
49072;BME280;52656;52.610;10.236;2023-07-28T02:26:30;99773.28;;;18.57;92.70
49072;BME280;52656;52.610;10.236;2023-07-28T02:28:55;99762.66;;;18.46;93.56
49072;BME280;52656;52.610;10.236;2023-07-28T02:31:21;99772.31;;;18.48;93.14
49072;BME280;52656;52.610;10.236;2023-07-28T02:33:46;99783.41;;;18.44;93.52
49072;BME280;52656;52.610;10.236;2023-07-28T02:36:11;99787.88;;;18.43;92.81
49072;BME280;52656;52.610;10.236;2023-07-28T02:38:36;99782.22;;;18.37;93.59
49072;BME280;52656;52.610;10.236;2023-07-28T02:41:01;99774.94;;;18.18;95.43
49072;BME280;52656;52.610;10.236;2023-07-28T02:43:29;99774.16;;;18.27;94.91
49072;BME280;52656;52.610;10.236;2023-07-28T02:45:54;99773.31;;;18.06;95.54
49072;BME280;52656;52.610;10.236;2023-07-28T02:48:20;99766.09;;;17.96;96.47
49072;BME280;52656;52.610;10.236;2023-07-28T02:50:46;99768.38;;;18.01;96.44
49072;BME280;52656;52.610;10.236;2023-07-28T02:53:12;99775.09;;;17.95;97.41
49072;BME280;52656;52.610;10.236;2023-07-28T02:55:44;99781.41;;;18.15;95.67
49072;BME280;52656;52.610;10.236;2023-07-28T02:58:10;99785.78;;;17.86;97.98
49072;BME280;52656;52.610;10.236;2023-07-28T03:00:38;99783.59;;;18.21;95.01
49072;BME280;52656;52.610;10.236;2023-07-28T03:03:04;99780.53;;;18.05;96.85
49072;BME280;52656;52.610;10.236;2023-07-28T03:05:30;99777.66;;;17.97;97.25
49072;BME280;52656;52.610;10.236;2023-07-28T03:07:55;99781.63;;;18.02;96.51
49072;BME280;52656;52.610;10.236;2023-07-28T03:10:21;99786.34;;;17.89;97.25
49072;BME280;52656;52.610;10.236;2023-07-28T03:12:46;99786.94;;;17.72;98.84
49072;BME280;52656;52.610;10.236;2023-07-28T03:15:11;99789.81;;;18.01;97.26
49072;BME280;52656;52.610;10.236;2023-07-28T03:17:36;99786.41;;;17.99;97.04
49072;BME280;52656;52.610;10.236;2023-07-28T03:20:01;99798.44;;;17.84;98.10
49072;BME280;52656;52.610;10.236;2023-07-28T03:22:27;99801.75;;;18.18;95.44
49072;BME280;52656;52.610;10.236;2023-07-28T03:24:52;99813.91;;;18.22;96.24
49072;BME280;52656;52.610;10.236;2023-07-28T03:27:17;99813.53;;;18.06;96.88
49072;BME280;52656;52.610;10.236;2023-07-28T03:29:42;99818.31;;;17.81;97.23
49072;BME280;52656;52.610;10.236;2023-07-28T03:32:08;99821.16;;;18.31;95.22
49072;BME280;52656;52.610;10.236;2023-07-28T03:34:33;99828.03;;;18.24;95.16
49072;BME280;52656;52.610;10.236;2023-07-28T03:36:58;99827.41;;;18.41;94.17
49072;BME280;52656;52.610;10.236;2023-07-28T03:39:23;99836.25;;;18.53;93.28
49072;BME280;52656;52.610;10.236;2023-07-28T03:41:48;99835.06;;;18.46;92.85
49072;BME280;52656;52.610;10.236;2023-07-28T03:44:14;99826.38;;;18.54;92.99
49072;BME280;52656;52.610;10.236;2023-07-28T03:46:41;99826.38;;;18.33;94.39
49072;BME280;52656;52.610;10.236;2023-07-28T03:49:06;99835.13;;;18.56;92.73
49072;BME280;52656;52.610;10.236;2023-07-28T03:51:31;99825.69;;;18.31;94.33
49072;BME280;52656;52.610;10.236;2023-07-28T03:53:57;99837.16;;;18.42;93.65
49072;BME280;52656;52.610;10.236;2023-07-28T03:56:22;99834.13;;;18.26;94.94
49072;BME280;52656;52.610;10.236;2023-07-28T03:58:47;99829.50;;;18.38;93.63
49072;BME280;52656;52.610;10.236;2023-07-28T04:01:12;99837.50;;;18.28;95.08
49072;BME280;52656;52.610;10.236;2023-07-28T04:03:38;99835.75;;;18.17;95.51
49072;BME280;52656;52.610;10.236;2023-07-28T04:06:10;99835.69;;;18.49;94.01
49072;BME280;52656;52.610;10.236;2023-07-28T04:08:36;99841.56;;;18.22;95.13
49072;BME280;52656;52.610;10.236;2023-07-28T04:11:01;99838.16;;;18.20;95.35
49072;BME280;52656;52.610;10.236;2023-07-28T04:13:26;99833.63;;;18.21;95.02
49072;BME280;52656;52.610;10.236;2023-07-28T04:15:51;99839.19;;;18.50;93.76
49072;BME280;52656;52.610;10.236;2023-07-28T04:18:17;99839.34;;;18.48;93.25
49072;BME280;52656;52.610;10.236;2023-07-28T04:20:43;99843.25;;;18.44;93.45
49072;BME280;52656;52.610;10.236;2023-07-28T04:23:08;99831.59;;;18.34;93.84
49072;BME280;52656;52.610;10.236;2023-07-28T04:25:33;99831.69;;;18.44;93.89
49072;BME280;52656;52.610;10.236;2023-07-28T04:27:58;99837.44;;;18.18;94.49
49072;BME280;52656;52.610;10.236;2023-07-28T04:30:23;99838.09;;;18.32;94.14
49072;BME280;52656;52.610;10.236;2023-07-28T04:32:49;99843.22;;;18.65;92.89
49072;BME280;52656;52.610;10.236;2023-07-28T04:35:14;99839.25;;;18.60;92.54
49072;BME280;52656;52.610;10.236;2023-07-28T04:37:39;99844.16;;;18.55;92.50
49072;BME280;52656;52.610;10.236;2023-07-28T04:40:04;99845.09;;;18.44;93.13
49072;BME280;52656;52.610;10.236;2023-07-28T04:42:30;99849.91;;;18.29;94.43
49072;BME280;52656;52.610;10.236;2023-07-28T04:44:55;99838.63;;;18.05;95.89
49072;BME280;52656;52.610;10.236;2023-07-28T04:47:20;99847.69;;;18.34;94.39
49072;BME280;52656;52.610;10.236;2023-07-28T04:49:45;99842.34;;;18.13;95.34
49072;BME280;52656;52.610;10.236;2023-07-28T04:52:11;99848.34;;;18.47;93.33
49072;BME280;52656;52.610;10.236;2023-07-28T04:54:36;99847.69;;;18.34;93.05
49072;BME280;52656;52.610;10.236;2023-07-28T04:57:01;99853.25;;;18.42;94.61
49072;BME280;52656;52.610;10.236;2023-07-28T04:59:26;99844.59;;;18.39;93.51
49072;BME280;52656;52.610;10.236;2023-07-28T05:01:51;99843.44;;;18.32;93.93
49072;BME280;52656;52.610;10.236;2023-07-28T05:04:17;99856.31;;;18.38;93.94
49072;BME280;52656;52.610;10.236;2023-07-28T05:06:42;99857.59;;;18.43;93.73
49072;BME280;52656;52.610;10.236;2023-07-28T05:09:07;99862.97;;;18.43;93.42
49072;BME280;52656;52.610;10.236;2023-07-28T05:11:34;99862.00;;;18.65;92.62
49072;BME280;52656;52.610;10.236;2023-07-28T05:13:59;99856.28;;;18.49;92.62
49072;BME280;52656;52.610;10.236;2023-07-28T05:16:24;99866.22;;;18.58;92.69
49072;BME280;52656;52.610;10.236;2023-07-28T05:18:49;99869.53;;;18.71;92.04
49072;BME280;52656;52.610;10.236;2023-07-28T05:21:15;99862.84;;;18.66;92.11
49072;BME280;52656;52.610;10.236;2023-07-28T05:23:40;99866.69;;;18.73;91.73
49072;BME280;52656;52.610;10.236;2023-07-28T05:26:05;99879.84;;;18.76;91.32
49072;BME280;52656;52.610;10.236;2023-07-28T05:28:33;99880.53;;;18.78;91.34
49072;BME280;52656;52.610;10.236;2023-07-28T05:31:05;99882.59;;;18.65;92.00
49072;BME280;52656;52.610;10.236;2023-07-28T05:33:30;99885.78;;;18.80;90.82
49072;BME280;52656;52.610;10.236;2023-07-28T05:35:59;99877.06;;;18.87;90.89
49072;BME280;52656;52.610;10.236;2023-07-28T05:38:24;99882.06;;;18.71;91.68
49072;BME280;52656;52.610;10.236;2023-07-28T05:40:55;99891.81;;;18.72;92.18
49072;BME280;52656;52.610;10.236;2023-07-28T05:43:21;99888.13;;;18.94;90.20
49072;BME280;52656;52.610;10.236;2023-07-28T05:45:47;99891.03;;;18.81;90.84
49072;BME280;52656;52.610;10.236;2023-07-28T05:48:12;99889.41;;;18.99;90.13
49072;BME280;52656;52.610;10.236;2023-07-28T05:50:38;99886.88;;;19.08;89.80
49072;BME280;52656;52.610;10.236;2023-07-28T05:53:03;99890.41;;;19.08;89.59
49072;BME280;52656;52.610;10.236;2023-07-28T05:55:29;99892.25;;;19.08;89.69
49072;BME280;52656;52.610;10.236;2023-07-28T05:57:54;99899.44;;;19.07;89.63
49072;BME280;52656;52.610;10.236;2023-07-28T06:00:20;99900.84;;;19.01;90.09
49072;BME280;52656;52.610;10.236;2023-07-28T06:02:45;99902.31;;;18.85;90.72
49072;BME280;52656;52.610;10.236;2023-07-28T06:05:10;99905.97;;;18.84;90.45
49072;BME280;52656;52.610;10.236;2023-07-28T06:07:36;99903.88;;;18.87;90.92
49072;BME280;52656;52.610;10.236;2023-07-28T06:10:01;99902.69;;;19.11;89.39
49072;BME280;52656;52.610;10.236;2023-07-28T06:12:26;99908.88;;;19.01;90.71
49072;BME280;52656;52.610;10.236;2023-07-28T06:14:52;99908.91;;;19.11;89.79
49072;BME280;52656;52.610;10.236;2023-07-28T06:17:17;99911.53;;;18.92;90.20
49072;BME280;52656;52.610;10.236;2023-07-28T06:19:42;99916.00;;;19.12;89.77
49072;BME280;52656;52.610;10.236;2023-07-28T06:22:07;99920.47;;;19.33;89.00
49072;BME280;52656;52.610;10.236;2023-07-28T06:24:33;99922.34;;;19.11;88.86
49072;BME280;52656;52.610;10.236;2023-07-28T06:26:58;99927.19;;;19.58;87.78
49072;BME280;52656;52.610;10.236;2023-07-28T06:29:23;99928.47;;;19.73;87.53
49072;BME280;52656;52.610;10.236;2023-07-28T06:31:48;99923.09;;;19.73;87.21
49072;BME280;52656;52.610;10.236;2023-07-28T06:34:13;99933.16;;;19.81;87.02
49072;BME280;52656;52.610;10.236;2023-07-28T06:36:39;99937.53;;;19.72;86.63
49072;BME280;52656;52.610;10.236;2023-07-28T06:39:04;99936.69;;;19.91;86.31
49072;BME280;52656;52.610;10.236;2023-07-28T06:41:30;99940.66;;;19.96;85.89
49072;BME280;52656;52.610;10.236;2023-07-28T06:43:55;99942.63;;;20.04;85.64
49072;BME280;52656;52.610;10.236;2023-07-28T06:46:20;99948.00;;;19.85;86.27
49072;BME280;52656;52.610;10.236;2023-07-28T06:48:45;99948.28;;;20.11;85.59
49072;BME280;52656;52.610;10.236;2023-07-28T06:51:11;99952.16;;;20.18;84.65
49072;BME280;52656;52.610;10.236;2023-07-28T06:53:36;99951.22;;;20.66;83.15
49072;BME280;52656;52.610;10.236;2023-07-28T06:56:01;99947.78;;;20.83;82.03
49072;BME280;52656;52.610;10.236;2023-07-28T06:58:26;99948.28;;;21.06;81.20
49072;BME280;52656;52.610;10.236;2023-07-28T07:00:51;99953.50;;;21.17;80.54
49072;BME280;52656;52.610;10.236;2023-07-28T07:03:17;99956.09;;;21.37;79.58
49072;BME280;52656;52.610;10.236;2023-07-28T07:05:42;99956.19;;;21.45;79.44
49072;BME280;52656;52.610;10.236;2023-07-28T07:08:08;99953.25;;;21.66;77.54
49072;BME280;52656;52.610;10.236;2023-07-28T07:10:33;99955.75;;;21.77;77.52
49072;BME280;52656;52.610;10.236;2023-07-28T07:12:59;99956.16;;;22.00;76.54
49072;BME280;52656;52.610;10.236;2023-07-28T07:15:24;99951.22;;;22.49;74.81
49072;BME280;52656;52.610;10.236;2023-07-28T07:17:50;99960.69;;;22.53;74.08
49072;BME280;52656;52.610;10.236;2023-07-28T07:20:15;99958.34;;;22.58;73.57
49072;BME280;52656;52.610;10.236;2023-07-28T07:22:40;99945.13;;;22.73;73.80
49072;BME280;52656;52.610;10.236;2023-07-28T07:25:06;99956.13;;;22.36;72.83
49072;BME280;52656;52.610;10.236;2023-07-28T07:27:32;99967.84;;;22.62;72.73
49072;BME280;52656;52.610;10.236;2023-07-28T07:29:57;99968.91;;;22.51;73.50
49072;BME280;52656;52.610;10.236;2023-07-28T07:32:22;99958.88;;;22.88;73.54
49072;BME280;52656;52.610;10.236;2023-07-28T07:34:48;99972.72;;;22.41;73.80
49072;BME280;52656;52.610;10.236;2023-07-28T07:37:13;99974.84;;;22.55;73.20
49072;BME280;52656;52.610;10.236;2023-07-28T07:39:38;99985.13;;;21.70;75.97
49072;BME280;52656;52.610;10.236;2023-07-28T07:42:06;99974.25;;;22.25;74.34
49072;BME280;52656;52.610;10.236;2023-07-28T07:44:31;99971.09;;;21.94;74.46
49072;BME280;52656;52.610;10.236;2023-07-28T07:46:58;99974.31;;;22.34;74.25
49072;BME280;52656;52.610;10.236;2023-07-28T07:49:24;99981.56;;;22.15;74.20
49072;BME280;52656;52.610;10.236;2023-07-28T07:51:49;99979.56;;;22.17;74.08
49072;BME280;52656;52.610;10.236;2023-07-28T07:54:14;99985.09;;;22.16;74.35
49072;BME280;52656;52.610;10.236;2023-07-28T07:56:43;99984.09;;;22.52;73.57
49072;BME280;52656;52.610;10.236;2023-07-28T07:59:08;99989.97;;;22.30;73.07
49072;BME280;52656;52.610;10.236;2023-07-28T08:01:33;99978.28;;;22.21;73.00
49072;BME280;52656;52.610;10.236;2023-07-28T08:03:59;99992.63;;;22.66;72.22
49072;BME280;52656;52.610;10.236;2023-07-28T08:06:24;99993.56;;;22.74;72.43
49072;BME280;52656;52.610;10.236;2023-07-28T08:08:49;99992.72;;;23.00;70.88
49072;BME280;52656;52.610;10.236;2023-07-28T08:11:17;100004.25;;;23.36;70.19
49072;BME280;52656;52.610;10.236;2023-07-28T08:13:42;99999.63;;;24.29;66.07
49072;BME280;52656;52.610;10.236;2023-07-28T08:16:07;100001.44;;;25.27;60.92
49072;BME280;52656;52.610;10.236;2023-07-28T08:18:33;100007.19;;;25.79;59.26
49072;BME280;52656;52.610;10.236;2023-07-28T08:20:59;100005.13;;;25.42;61.26
49072;BME280;52656;52.610;10.236;2023-07-28T08:23:24;100011.16;;;24.31;63.36
49072;BME280;52656;52.610;10.236;2023-07-28T08:25:49;100011.03;;;24.58;63.43
49072;BME280;52656;52.610;10.236;2023-07-28T08:28:14;100023.25;;;23.87;66.51
49072;BME280;52656;52.610;10.236;2023-07-28T08:30:40;100027.44;;;23.81;66.95
49072;BME280;52656;52.610;10.236;2023-07-28T08:33:05;100030.06;;;23.04;67.51
49072;BME280;52656;52.610;10.236;2023-07-28T08:35:30;100030.50;;;23.44;68.39
49072;BME280;52656;52.610;10.236;2023-07-28T08:37:55;100028.28;;;23.13;69.02
49072;BME280;52656;52.610;10.236;2023-07-28T08:40:20;100037.28;;;23.22;67.61
49072;BME280;52656;52.610;10.236;2023-07-28T08:42:46;100041.03;;;23.03;68.97
49072;BME280;52656;52.610;10.236;2023-07-28T08:45:11;100043.09;;;23.35;68.42
49072;BME280;52656;52.610;10.236;2023-07-28T08:47:38;100036.59;;;23.54;67.02
49072;BME280;52656;52.610;10.236;2023-07-28T08:50:03;100050.03;;;23.12;68.28
49072;BME280;52656;52.610;10.236;2023-07-28T08:52:29;100045.94;;;23.34;68.95
49072;BME280;52656;52.610;10.236;2023-07-28T08:54:54;100043.72;;;22.41;70.32
49072;BME280;52656;52.610;10.236;2023-07-28T08:57:19;100061.81;;;22.13;71.97
49072;BME280;52656;52.610;10.236;2023-07-28T08:59:45;100060.97;;;22.13;71.63
49072;BME280;52656;52.610;10.236;2023-07-28T09:02:14;100062.56;;;22.05;71.94
49072;BME280;52656;52.610;10.236;2023-07-28T09:04:40;100060.84;;;22.50;70.84
49072;BME280;52656;52.610;10.236;2023-07-28T09:07:05;100061.22;;;22.55;70.78
49072;BME280;52656;52.610;10.236;2023-07-28T09:09:31;100067.38;;;22.47;70.48
49072;BME280;52656;52.610;10.236;2023-07-28T09:11:56;100060.94;;;22.40;71.68
49072;BME280;52656;52.610;10.236;2023-07-28T09:14:23;100060.78;;;23.03;69.56
49072;BME280;52656;52.610;10.236;2023-07-28T09:16:51;100062.03;;;22.91;68.11
49072;BME280;52656;52.610;10.236;2023-07-28T09:19:17;100065.25;;;23.13;68.52
49072;BME280;52656;52.610;10.236;2023-07-28T09:21:43;100065.53;;;23.27;68.30
49072;BME280;52656;52.610;10.236;2023-07-28T09:24:09;100066.97;;;23.48;67.78
49072;BME280;52656;52.610;10.236;2023-07-28T09:26:39;100070.78;;;23.63;66.82
49072;BME280;52656;52.610;10.236;2023-07-28T09:29:11;100070.97;;;24.04;65.44
49072;BME280;52656;52.610;10.236;2023-07-28T09:31:37;100071.19;;;24.27;65.13
49072;BME280;52656;52.610;10.236;2023-07-28T09:34:03;100074.91;;;24.34;63.85
49072;BME280;52656;52.610;10.236;2023-07-28T09:36:31;100073.31;;;24.90;63.42
49072;BME280;52656;52.610;10.236;2023-07-28T09:38:56;100073.63;;;24.79;61.91
49072;BME280;52656;52.610;10.236;2023-07-28T09:41:23;100069.16;;;24.29;62.14
49072;BME280;52656;52.610;10.236;2023-07-28T09:43:50;100074.66;;;24.62;63.41
49072;BME280;52656;52.610;10.236;2023-07-28T09:46:15;100075.19;;;24.90;63.02
49072;BME280;52656;52.610;10.236;2023-07-28T09:48:43;100066.88;;;25.08;60.00
49072;BME280;52656;52.610;10.236;2023-07-28T09:51:14;100072.78;;;25.27;60.77
49072;BME280;52656;52.610;10.236;2023-07-28T09:53:44;100071.25;;;25.00;61.13
49072;BME280;52656;52.610;10.236;2023-07-28T09:56:12;100069.25;;;24.94;60.16
49072;BME280;52656;52.610;10.236;2023-07-28T09:58:40;100060.84;;;25.53;59.29
49072;BME280;52656;52.610;10.236;2023-07-28T10:01:07;100065.16;;;26.49;57.61
49072;BME280;52656;52.610;10.236;2023-07-28T10:03:32;100062.13;;;27.72;54.09
49072;BME280;52656;52.610;10.236;2023-07-28T10:05:57;100071.03;;;27.80;52.35
49072;BME280;52656;52.610;10.236;2023-07-28T10:08:23;100066.06;;;28.78;49.96
49072;BME280;52656;52.610;10.236;2023-07-28T10:10:48;100067.81;;;28.86;47.00
49072;BME280;52656;52.610;10.236;2023-07-28T10:13:20;100066.13;;;29.34;49.53
49072;BME280;52656;52.610;10.236;2023-07-28T10:15:46;100066.50;;;28.39;50.95
49072;BME280;52656;52.610;10.236;2023-07-28T10:18:12;100072.41;;;27.32;52.16
49072;BME280;52656;52.610;10.236;2023-07-28T10:20:39;100071.41;;;27.77;50.12
49072;BME280;52656;52.610;10.236;2023-07-28T10:23:15;100074.53;;;26.84;52.79
49072;BME280;52656;52.610;10.236;2023-07-28T10:25:41;100073.66;;;27.44;50.41
49072;BME280;52656;52.610;10.236;2023-07-28T10:28:07;100064.06;;;27.93;50.54
49072;BME280;52656;52.610;10.236;2023-07-28T10:30:53;100057.94;;;26.56;52.13
49072;BME280;52656;52.610;10.236;2023-07-28T10:33:40;100067.59;;;26.81;53.61
49072;BME280;52656;52.610;10.236;2023-07-28T10:39:32;100068.38;;;27.43;53.54
49072;BME280;52656;52.610;10.236;2023-07-28T10:41:34;100078.72;;;27.77;52.19
49072;BME280;52656;52.610;10.236;2023-07-28T10:44:00;100066.13;;;27.46;51.13
49072;BME280;52656;52.610;10.236;2023-07-28T10:46:25;100064.13;;;28.93;48.29
49072;BME280;52656;52.610;10.236;2023-07-28T10:48:51;100054.88;;;29.22;46.27
49072;BME280;52656;52.610;10.236;2023-07-28T10:51:24;100062.88;;;28.96;46.15
49072;BME280;52656;52.610;10.236;2023-07-28T10:53:57;100073.63;;;28.18;47.17
49072;BME280;52656;52.610;10.236;2023-07-28T10:56:25;100067.03;;;28.49;46.48
49072;BME280;52656;52.610;10.236;2023-07-28T11:01:21;100059.22;;;30.27;43.95
49072;BME280;52656;52.610;10.236;2023-07-28T11:03:47;100063.56;;;30.08;43.26
49072;BME280;52656;52.610;10.236;2023-07-28T11:06:13;100056.34;;;30.55;43.30
49072;BME280;52656;52.610;10.236;2023-07-28T11:08:38;100062.22;;;30.39;43.85
49072;BME280;52656;52.610;10.236;2023-07-28T11:11:04;100048.91;;;30.23;42.31
49072;BME280;52656;52.610;10.236;2023-07-28T11:13:29;100054.19;;;30.31;42.87
49072;BME280;52656;52.610;10.236;2023-07-28T11:15:55;100065.78;;;30.40;41.92
49072;BME280;52656;52.610;10.236;2023-07-28T11:18:20;100062.78;;;30.21;41.80
49072;BME280;52656;52.610;10.236;2023-07-28T11:20:46;100062.63;;;30.43;40.92
49072;BME280;52656;52.610;10.236;2023-07-28T11:23:13;100062.81;;;29.80;42.75
49072;BME280;52656;52.610;10.236;2023-07-28T11:25:38;100058.34;;;29.72;41.88
49072;BME280;52656;52.610;10.236;2023-07-28T11:28:04;100073.84;;;30.06;42.78
49072;BME280;52656;52.610;10.236;2023-07-28T11:30:32;100077.84;;;29.63;41.01
49072;BME280;52656;52.610;10.236;2023-07-28T11:33:00;100060.00;;;30.08;42.44
49072;BME280;52656;52.610;10.236;2023-07-28T11:35:26;100061.63;;;29.89;42.20
49072;BME280;52656;52.610;10.236;2023-07-28T11:37:51;100069.00;;;29.95;41.61
49072;BME280;52656;52.610;10.236;2023-07-28T11:40:18;100070.94;;;29.11;42.89
49072;BME280;52656;52.610;10.236;2023-07-28T11:42:45;100080.56;;;29.06;44.20
49072;BME280;52656;52.610;10.236;2023-07-28T11:45:12;100083.03;;;29.01;44.77
49072;BME280;52656;52.610;10.236;2023-07-28T11:47:38;100085.03;;;28.28;45.19
49072;BME280;52656;52.610;10.236;2023-07-28T11:50:03;100085.50;;;27.66;46.78
49072;BME280;52656;52.610;10.236;2023-07-28T11:52:33;100087.88;;;28.20;45.40
49072;BME280;52656;52.610;10.236;2023-07-28T11:54:59;100083.19;;;28.14;45.86
49072;BME280;52656;52.610;10.236;2023-07-28T11:57:29;100091.28;;;28.65;44.96
49072;BME280;52656;52.610;10.236;2023-07-28T11:59:56;100079.44;;;28.73;45.08
49072;BME280;52656;52.610;10.236;2023-07-28T12:02:27;100078.97;;;29.19;44.75
49072;BME280;52656;52.610;10.236;2023-07-28T12:04:53;100081.47;;;29.76;43.06
49072;BME280;52656;52.610;10.236;2023-07-28T12:07:20;100086.19;;;29.54;43.77
49072;BME280;52656;52.610;10.236;2023-07-28T12:09:52;100078.06;;;27.90;44.52
49072;BME280;52656;52.610;10.236;2023-07-28T12:12:18;100081.31;;;28.15;45.37
49072;BME280;52656;52.610;10.236;2023-07-28T12:14:44;100085.44;;;27.07;47.04
49072;BME280;52656;52.610;10.236;2023-07-28T12:17:15;100090.53;;;27.54;46.85
49072;BME280;52656;52.610;10.236;2023-07-28T12:22:20;100088.66;;;27.25;46.53
49072;BME280;52656;52.610;10.236;2023-07-28T12:24:46;100095.81;;;27.56;46.35
49072;BME280;52656;52.610;10.236;2023-07-28T12:27:11;100098.03;;;27.52;46.57
49072;BME280;52656;52.610;10.236;2023-07-28T12:29:38;100100.56;;;27.83;46.91
49072;BME280;52656;52.610;10.236;2023-07-28T12:32:03;100109.38;;;28.00;46.75
49072;BME280;52656;52.610;10.236;2023-07-28T12:34:28;100108.56;;;27.85;46.28
49072;BME280;52656;52.610;10.236;2023-07-28T12:36:53;100109.84;;;28.19;46.76
49072;BME280;52656;52.610;10.236;2023-07-28T12:39:19;100112.47;;;28.12;45.86
49072;BME280;52656;52.610;10.236;2023-07-28T12:41:44;100115.59;;;27.94;45.89
49072;BME280;52656;52.610;10.236;2023-07-28T12:44:09;100105.66;;;28.52;44.99
49072;BME280;52656;52.610;10.236;2023-07-28T12:46:35;100109.75;;;28.85;45.20
49072;BME280;52656;52.610;10.236;2023-07-28T12:49:00;100112.66;;;29.04;44.57